• Join FlightAware (Why Join?)
  • Login
  • US Flag 
01:28PM EDT


 

Airport Tracker/Info


-or-


 

Live Flight TrackerFlight Track Log ✈ CES5350 ✈ 13-Apr-2013 ✈ ZGGG / CAN - KHIA

Flight Track Log - Related Links

Times and Time Zones

All times are in EDT time to prevent confusion due to time zone crossing. See the CES5350 flight status page for this flight to view local times or setup timezone preferences in your user account.

Time Position Orientation Groundspeed Altitude Reporting Facility
EDT Latitude Longitude Course Direction KTS MPH feet Rate Location/Type
05:10AM 23.4360 113.3310 29° Northeast 170 196 2,600  Level FlightAware
05:10AM 23.4530 113.3410 28° Northeast 184 212 3,300 1,260 Climbing FlightAware
05:11AM 23.4790 113.3570 29° Northeast 238 274 3,800 1,200 Climbing FlightAware
05:11AM 23.4930 113.3710 43° Northeast 265 305 4,200 1,680 Climbing FlightAware
05:11AM 23.4980 113.3830 66° East 279 321 4,500 2,700 Climbing FlightAware
05:12AM 23.5050 113.4260 80° East 297 342 6,000 2,280 Climbing FlightAware
05:12AM 23.5120 113.4720 81° East 307 353 6,800 960 Climbing FlightAware
05:13AM 23.5180 113.5090 80° East 306 352 6,900 60 Climbing FlightAware
05:13AM 23.5260 113.5550 79° East 307 353 6,900 180 Level FlightAware
05:14AM 23.5320 113.5930 80° East 307 353 7,100 1,620 Climbing FlightAware
05:14AM 23.5390 113.6400 81° East 318 366 8,400 1,800 Climbing FlightAware
05:15AM 23.5470 113.6880 80° East 319 367 8,900 540 Climbing FlightAware
05:15AM 23.5530 113.7260 80° East 319 367 8,900 300 Level FlightAware
05:15AM 23.5570 113.7500 80° East 320 368 9,100 1,740 Climbing FlightAware
05:16AM 23.5680 113.8170 80° East 345 397 10,500 1,620 Climbing FlightAware
05:17AM 23.5810 113.9010 80° East 401 461 11,400 1,920 Climbing FlightAware
05:17AM 23.5940 113.9800 80° East 411 473 13,300 2,940 Climbing FlightAware
05:18AM 23.6090 114.0760 80° East 428 493 15,600 2,400 Climbing FlightAware
05:19AM 23.6220 114.1610 81° East 452 520 16,700 1,380 Climbing FlightAware
05:19AM 23.6370 114.2520 80° East 472 543 17,500 1,920 Climbing FlightAware
05:20AM 23.6770 114.3480 66° East 454 522 19,500 2,100 Climbing FlightAware
05:21AM 23.7420 114.4040 38° Northeast 456 525 20,500 1,500 Climbing FlightAware
05:22AM 23.8090 114.4580 36° Northeast 464 534 21,500 1,440 Climbing FlightAware
05:22AM 23.8860 114.5220 37° Northeast 472 543 22,600 1,800 Climbing FlightAware
05:23AM 23.9600 114.5820 37° Northeast 465 535 24,100 1,380 Climbing FlightAware
05:24AM 24.0370 114.6460 37° Northeast 486 559 24,600 300 Climbing FlightAware
05:24AM 24.1130 114.7090 37° Northeast 511 588 24,600  Level FlightAware
05:25AM 24.1960 114.7750 36° Northeast 523 602 24,600 60 Level FlightAware
05:26AM 24.3020 114.8450 31° Northeast 520 598 24,700 60 Climbing FlightAware
05:27AM 24.3720 114.8920 31° Northeast 520 598 24,700 2,160 Level FlightAware
05:27AM 24.4940 114.9010 North 487 560 27,600 2,520 Climbing FlightAware
05:28AM 24.5940 114.9260 13° North 492 566 28,300 1,260 Climbing FlightAware
05:29AM 24.6710 114.9470 14° North 491 565 29,300 1,380 Climbing FlightAware
05:30AM 24.7680 114.9990 26° Northeast 496 571 30,300 1,680 Climbing FlightAware
05:30AM 24.8440 115.0370 24° Northeast 480 552 31,700 1,020 Climbing FlightAware
05:31AM 24.9290 115.0730 21° North 480 552 31,700  Level FlightAware
05:32AM 24.9990 115.1030 21° North 480 552 31,700  Level FlightAware
05:32AM 25.0700 115.1320 20° North 480 552 31,700  Level FlightAware
05:33AM 25.1580 115.1700 21° North 480 552 31,700  Level FlightAware
05:34AM 25.2280 115.2000 21° North 480 552 31,700  Level FlightAware
05:34AM 25.2990 115.2300 21° North 480 552 31,700  Level FlightAware
05:35AM 25.3690 115.2590 21° North 480 552 31,700  Level FlightAware
05:36AM 25.4570 115.2970 21° North 480 552 31,700  Level FlightAware
05:37AM 25.5280 115.3270 21° North 480 552 31,700  Level FlightAware
05:37AM 25.5980 115.3570 21° North 480 552 31,700  Level FlightAware
05:38AM 25.6690 115.3870 21° North 480 552 31,700  Level FlightAware
05:39AM 25.7390 115.4170 21° North 480 552 31,700  Level FlightAware
05:39AM 25.8100 115.4470 21° North 480 552 31,700  Level FlightAware
05:40AM 25.8980 115.4850 21° North 480 552 31,700  Level FlightAware